sensor_id;sensor_type;location;lat;lon;timestamp;P1;durP1;ratioP1;P2;durP2;ratioP2
19107;SDS011;9686;48.832;9.126;2022-12-24T00:01:10;2.70;;;1.10;;
19107;SDS011;9686;48.832;9.126;2022-12-24T00:03:36;3.33;;;1.50;;
19107;SDS011;9686;48.832;9.126;2022-12-24T00:06:05;4.77;;;1.50;;
19107;SDS011;9686;48.832;9.126;2022-12-24T00:08:34;5.13;;;1.30;;
19107;SDS011;9686;48.832;9.126;2022-12-24T00:11:00;9.27;;;1.80;;
19107;SDS011;9686;48.832;9.126;2022-12-24T00:13:25;6.73;;;1.87;;
19107;SDS011;9686;48.832;9.126;2022-12-24T00:15:50;6.07;;;1.47;;
19107;SDS011;9686;48.832;9.126;2022-12-24T00:18:16;3.50;;;1.13;;
19107;SDS011;9686;48.832;9.126;2022-12-24T00:20:44;2.90;;;1.50;;
19107;SDS011;9686;48.832;9.126;2022-12-24T00:23:10;6.13;;;1.27;;
19107;SDS011;9686;48.832;9.126;2022-12-24T00:25:36;5.10;;;1.23;;
19107;SDS011;9686;48.832;9.126;2022-12-24T00:28:01;5.77;;;1.43;;
19107;SDS011;9686;48.832;9.126;2022-12-24T00:30:26;4.73;;;1.40;;
19107;SDS011;9686;48.832;9.126;2022-12-24T00:32:52;5.83;;;1.10;;
19107;SDS011;9686;48.832;9.126;2022-12-24T00:35:17;9.43;;;2.00;;
19107;SDS011;9686;48.832;9.126;2022-12-24T00:37:45;7.70;;;1.57;;
19107;SDS011;9686;48.832;9.126;2022-12-24T00:40:11;4.93;;;1.93;;
19107;SDS011;9686;48.832;9.126;2022-12-24T00:42:36;3.13;;;1.43;;
19107;SDS011;9686;48.832;9.126;2022-12-24T00:45:02;4.27;;;1.53;;
19107;SDS011;9686;48.832;9.126;2022-12-24T00:47:27;6.17;;;1.40;;
19107;SDS011;9686;48.832;9.126;2022-12-24T00:49:52;3.67;;;1.10;;
19107;SDS011;9686;48.832;9.126;2022-12-24T00:52:18;6.20;;;1.47;;
19107;SDS011;9686;48.832;9.126;2022-12-24T00:54:43;8.83;;;1.70;;
19107;SDS011;9686;48.832;9.126;2022-12-24T00:57:08;2.90;;;1.27;;
19107;SDS011;9686;48.832;9.126;2022-12-24T00:59:34;6.57;;;1.40;;
19107;SDS011;9686;48.832;9.126;2022-12-24T01:01:59;3.57;;;1.20;;
19107;SDS011;9686;48.832;9.126;2022-12-24T01:04:24;5.67;;;1.33;;
19107;SDS011;9686;48.832;9.126;2022-12-24T01:07:08;5.10;;;1.23;;
19107;SDS011;9686;48.832;9.126;2022-12-24T01:09:33;6.13;;;1.33;;
19107;SDS011;9686;48.832;9.126;2022-12-24T01:11:58;5.87;;;1.30;;
19107;SDS011;9686;48.832;9.126;2022-12-24T01:14:24;3.63;;;1.10;;
19107;SDS011;9686;48.832;9.126;2022-12-24T01:16:49;6.13;;;1.67;;
19107;SDS011;9686;48.832;9.126;2022-12-24T01:19:14;5.20;;;2.03;;
19107;SDS011;9686;48.832;9.126;2022-12-24T01:21:39;6.77;;;1.60;;
19107;SDS011;9686;48.832;9.126;2022-12-24T01:24:05;6.53;;;1.50;;
19107;SDS011;9686;48.832;9.126;2022-12-24T01:26:30;5.63;;;1.67;;
19107;SDS011;9686;48.832;9.126;2022-12-24T01:28:55;6.27;;;1.70;;
19107;SDS011;9686;48.832;9.126;2022-12-24T01:31:21;7.00;;;1.40;;
19107;SDS011;9686;48.832;9.126;2022-12-24T01:33:47;8.93;;;1.77;;
19107;SDS011;9686;48.832;9.126;2022-12-24T01:36:13;7.37;;;1.87;;
19107;SDS011;9686;48.832;9.126;2022-12-24T01:38:39;10.13;;;2.00;;
19107;SDS011;9686;48.832;9.126;2022-12-24T01:41:04;10.47;;;2.37;;
19107;SDS011;9686;48.832;9.126;2022-12-24T01:43:48;7.10;;;1.50;;
19107;SDS011;9686;48.832;9.126;2022-12-24T01:46:27;7.27;;;1.83;;
19107;SDS011;9686;48.832;9.126;2022-12-24T01:48:55;11.30;;;2.10;;
19107;SDS011;9686;48.832;9.126;2022-12-24T01:54:06;11.00;;;2.10;;
19107;SDS011;9686;48.832;9.126;2022-12-24T01:56:36;6.90;;;1.87;;
19107;SDS011;9686;48.832;9.126;2022-12-24T01:59:07;9.77;;;1.90;;
19107;SDS011;9686;48.832;9.126;2022-12-24T02:01:35;8.50;;;2.17;;
19107;SDS011;9686;48.832;9.126;2022-12-24T02:04:02;14.00;;;2.40;;
19107;SDS011;9686;48.832;9.126;2022-12-24T02:06:32;5.93;;;1.63;;
19107;SDS011;9686;48.832;9.126;2022-12-24T02:08:58;10.47;;;2.00;;
19107;SDS011;9686;48.832;9.126;2022-12-24T02:11:23;13.77;;;2.40;;
19107;SDS011;9686;48.832;9.126;2022-12-24T02:13:49;8.87;;;2.30;;
19107;SDS011;9686;48.832;9.126;2022-12-24T02:33:41;7.73;;;1.77;;
19107;SDS011;9686;48.832;9.126;2022-12-24T02:36:31;9.10;;;2.10;;
19107;SDS011;9686;48.832;9.126;2022-12-24T02:39:02;5.77;;;1.67;;
19107;SDS011;9686;48.832;9.126;2022-12-24T02:41:34;4.20;;;1.57;;
19107;SDS011;9686;48.832;9.126;2022-12-24T02:44:24;9.13;;;2.27;;
19107;SDS011;9686;48.832;9.126;2022-12-24T02:46:52;6.50;;;2.10;;
19107;SDS011;9686;48.832;9.126;2022-12-24T02:49:20;8.33;;;1.93;;
19107;SDS011;9686;48.832;9.126;2022-12-24T02:51:45;8.37;;;1.87;;
19107;SDS011;9686;48.832;9.126;2022-12-24T02:54:11;14.70;;;2.60;;
19107;SDS011;9686;48.832;9.126;2022-12-24T02:56:49;8.70;;;2.10;;
19107;SDS011;9686;48.832;9.126;2022-12-24T02:59:43;8.73;;;2.40;;
19107;SDS011;9686;48.832;9.126;2022-12-24T03:02:18;7.13;;;1.90;;
19107;SDS011;9686;48.832;9.126;2022-12-24T03:04:59;5.57;;;1.73;;
19107;SDS011;9686;48.832;9.126;2022-12-24T03:07:34;5.73;;;1.90;;
19107;SDS011;9686;48.832;9.126;2022-12-24T03:12:51;8.27;;;2.00;;
19107;SDS011;9686;48.832;9.126;2022-12-24T03:15:23;8.10;;;1.70;;
19107;SDS011;9686;48.832;9.126;2022-12-24T03:17:51;9.13;;;1.80;;
19107;SDS011;9686;48.832;9.126;2022-12-24T03:20:21;6.27;;;1.90;;
19107;SDS011;9686;48.832;9.126;2022-12-24T03:22:57;6.37;;;2.00;;
19107;SDS011;9686;48.832;9.126;2022-12-24T03:25:23;8.23;;;1.80;;
19107;SDS011;9686;48.832;9.126;2022-12-24T03:27:49;5.00;;;1.77;;
19107;SDS011;9686;48.832;9.126;2022-12-24T03:30:16;7.07;;;1.83;;
19107;SDS011;9686;48.832;9.126;2022-12-24T03:32:42;5.87;;;1.63;;
19107;SDS011;9686;48.832;9.126;2022-12-24T03:35:09;5.17;;;1.90;;
19107;SDS011;9686;48.832;9.126;2022-12-24T03:37:35;6.80;;;2.23;;
19107;SDS011;9686;48.832;9.126;2022-12-24T03:40:00;4.23;;;2.00;;
19107;SDS011;9686;48.832;9.126;2022-12-24T03:42:26;5.67;;;2.03;;
19107;SDS011;9686;48.832;9.126;2022-12-24T03:44:51;8.43;;;2.40;;
19107;SDS011;9686;48.832;9.126;2022-12-24T03:47:16;9.57;;;2.10;;
19107;SDS011;9686;48.832;9.126;2022-12-24T03:49:42;8.00;;;1.70;;
19107;SDS011;9686;48.832;9.126;2022-12-24T03:52:07;3.70;;;2.03;;
19107;SDS011;9686;48.832;9.126;2022-12-24T03:54:32;4.80;;;1.53;;
19107;SDS011;9686;48.832;9.126;2022-12-24T03:56:57;4.70;;;2.33;;
19107;SDS011;9686;48.832;9.126;2022-12-24T03:59:23;9.43;;;2.03;;
19107;SDS011;9686;48.832;9.126;2022-12-24T04:01:48;5.07;;;1.53;;
19107;SDS011;9686;48.832;9.126;2022-12-24T04:04:14;5.63;;;2.33;;
19107;SDS011;9686;48.832;9.126;2022-12-24T04:06:39;4.60;;;1.80;;
19107;SDS011;9686;48.832;9.126;2022-12-24T04:09:05;9.97;;;2.30;;
19107;SDS011;9686;48.832;9.126;2022-12-24T04:11:30;4.90;;;1.70;;
19107;SDS011;9686;48.832;9.126;2022-12-24T04:13:56;4.40;;;2.13;;
19107;SDS011;9686;48.832;9.126;2022-12-24T04:16:21;7.60;;;2.13;;
19107;SDS011;9686;48.832;9.126;2022-12-24T04:18:47;7.30;;;2.00;;
19107;SDS011;9686;48.832;9.126;2022-12-24T04:21:12;4.47;;;1.93;;
19107;SDS011;9686;48.832;9.126;2022-12-24T04:23:38;8.53;;;2.10;;
19107;SDS011;9686;48.832;9.126;2022-12-24T04:26:05;6.20;;;1.90;;
19107;SDS011;9686;48.832;9.126;2022-12-24T04:28:33;5.47;;;1.67;;
19107;SDS011;9686;48.832;9.126;2022-12-24T04:30:59;5.00;;;1.77;;
19107;SDS011;9686;48.832;9.126;2022-12-24T04:33:26;8.63;;;2.23;;
19107;SDS011;9686;48.832;9.126;2022-12-24T04:35:51;4.03;;;1.70;;
19107;SDS011;9686;48.832;9.126;2022-12-24T04:38:17;4.73;;;1.70;;
19107;SDS011;9686;48.832;9.126;2022-12-24T04:40:42;5.30;;;2.10;;
19107;SDS011;9686;48.832;9.126;2022-12-24T04:43:08;5.90;;;2.17;;
19107;SDS011;9686;48.832;9.126;2022-12-24T04:45:33;6.17;;;2.10;;
19107;SDS011;9686;48.832;9.126;2022-12-24T04:47:58;6.87;;;1.83;;
19107;SDS011;9686;48.832;9.126;2022-12-24T04:50:24;9.13;;;2.40;;
19107;SDS011;9686;48.832;9.126;2022-12-24T04:52:49;7.20;;;2.30;;
19107;SDS011;9686;48.832;9.126;2022-12-24T04:55:14;7.80;;;1.80;;
19107;SDS011;9686;48.832;9.126;2022-12-24T04:57:40;7.73;;;1.93;;
19107;SDS011;9686;48.832;9.126;2022-12-24T05:00:08;8.13;;;2.13;;
19107;SDS011;9686;48.832;9.126;2022-12-24T05:02:34;8.20;;;2.63;;
19107;SDS011;9686;48.832;9.126;2022-12-24T05:04:59;5.80;;;2.37;;
19107;SDS011;9686;48.832;9.126;2022-12-24T05:07:25;6.40;;;2.47;;
19107;SDS011;9686;48.832;9.126;2022-12-24T05:09:50;8.53;;;2.17;;
19107;SDS011;9686;48.832;9.126;2022-12-24T05:12:15;13.07;;;2.37;;
19107;SDS011;9686;48.832;9.126;2022-12-24T05:14:41;9.93;;;2.30;;
19107;SDS011;9686;48.832;9.126;2022-12-24T05:17:06;7.37;;;2.33;;
19107;SDS011;9686;48.832;9.126;2022-12-24T05:19:31;4.73;;;1.90;;
19107;SDS011;9686;48.832;9.126;2022-12-24T05:21:57;8.63;;;1.80;;
19107;SDS011;9686;48.832;9.126;2022-12-24T05:24:40;5.03;;;1.80;;
19107;SDS011;9686;48.832;9.126;2022-12-24T05:27:24;5.47;;;2.00;;
19107;SDS011;9686;48.832;9.126;2022-12-24T05:29:50;6.83;;;1.97;;
19107;SDS011;9686;48.832;9.126;2022-12-24T05:32:15;9.63;;;2.40;;
19107;SDS011;9686;48.832;9.126;2022-12-24T05:34:40;7.03;;;2.00;;
19107;SDS011;9686;48.832;9.126;2022-12-24T05:37:06;8.00;;;2.40;;
19107;SDS011;9686;48.832;9.126;2022-12-24T05:39:31;4.67;;;2.00;;
19107;SDS011;9686;48.832;9.126;2022-12-24T05:41:56;10.93;;;2.50;;
19107;SDS011;9686;48.832;9.126;2022-12-24T05:44:22;6.77;;;1.97;;
19107;SDS011;9686;48.832;9.126;2022-12-24T05:46:47;6.60;;;1.97;;
19107;SDS011;9686;48.832;9.126;2022-12-24T05:49:12;6.07;;;2.00;;
19107;SDS011;9686;48.832;9.126;2022-12-24T05:51:38;10.50;;;2.00;;
19107;SDS011;9686;48.832;9.126;2022-12-24T05:54:06;7.23;;;1.90;;
19107;SDS011;9686;48.832;9.126;2022-12-24T05:56:32;4.63;;;1.70;;
19107;SDS011;9686;48.832;9.126;2022-12-24T05:58:58;5.17;;;1.50;;
19107;SDS011;9686;48.832;9.126;2022-12-24T06:01:23;4.73;;;1.63;;
19107;SDS011;9686;48.832;9.126;2022-12-24T06:03:50;9.30;;;1.90;;
19107;SDS011;9686;48.832;9.126;2022-12-24T06:06:20;9.70;;;1.93;;
19107;SDS011;9686;48.832;9.126;2022-12-24T06:08:48;7.20;;;1.97;;
19107;SDS011;9686;48.832;9.126;2022-12-24T06:11:14;4.63;;;1.60;;
19107;SDS011;9686;48.832;9.126;2022-12-24T06:13:41;4.23;;;1.83;;
19107;SDS011;9686;48.832;9.126;2022-12-24T06:16:10;5.00;;;1.80;;
19107;SDS011;9686;48.832;9.126;2022-12-24T06:18:38;7.00;;;1.73;;
19107;SDS011;9686;48.832;9.126;2022-12-24T06:21:04;5.87;;;1.83;;
19107;SDS011;9686;48.832;9.126;2022-12-24T06:23:30;8.53;;;2.00;;
19107;SDS011;9686;48.832;9.126;2022-12-24T06:25:58;8.57;;;1.90;;
19107;SDS011;9686;48.832;9.126;2022-12-24T06:28:28;8.47;;;2.50;;
19107;SDS011;9686;48.832;9.126;2022-12-24T06:30:54;10.67;;;1.97;;
19107;SDS011;9686;48.832;9.126;2022-12-24T06:33:20;8.30;;;1.90;;
19107;SDS011;9686;48.832;9.126;2022-12-24T06:35:45;8.40;;;2.10;;
19107;SDS011;9686;48.832;9.126;2022-12-24T06:38:11;8.97;;;2.00;;
19107;SDS011;9686;48.832;9.126;2022-12-24T06:40:38;10.80;;;2.20;;
19107;SDS011;9686;48.832;9.126;2022-12-24T06:43:04;7.43;;;2.17;;
19107;SDS011;9686;48.832;9.126;2022-12-24T06:45:29;9.00;;;2.10;;
19107;SDS011;9686;48.832;9.126;2022-12-24T06:47:54;7.50;;;1.63;;
19107;SDS011;9686;48.832;9.126;2022-12-24T06:50:20;5.27;;;1.93;;
19107;SDS011;9686;48.832;9.126;2022-12-24T06:52:45;7.37;;;2.03;;
19107;SDS011;9686;48.832;9.126;2022-12-24T06:55:11;5.07;;;1.77;;
19107;SDS011;9686;48.832;9.126;2022-12-24T06:57:36;6.73;;;1.83;;
19107;SDS011;9686;48.832;9.126;2022-12-24T07:00:02;5.30;;;1.77;;
19107;SDS011;9686;48.832;9.126;2022-12-24T07:02:28;4.70;;;2.03;;
19107;SDS011;9686;48.832;9.126;2022-12-24T07:04:53;8.63;;;1.97;;
19107;SDS011;9686;48.832;9.126;2022-12-24T07:07:18;6.53;;;1.53;;
19107;SDS011;9686;48.832;9.126;2022-12-24T07:09:44;2.40;;;1.13;;
19107;SDS011;9686;48.832;9.126;2022-12-24T07:12:09;13.00;;;2.27;;
19107;SDS011;9686;48.832;9.126;2022-12-24T07:14:34;5.33;;;1.60;;
19107;SDS011;9686;48.832;9.126;2022-12-24T07:16:59;5.30;;;1.87;;
19107;SDS011;9686;48.832;9.126;2022-12-24T07:19:25;4.43;;;1.77;;
19107;SDS011;9686;48.832;9.126;2022-12-24T07:21:50;5.63;;;1.43;;
19107;SDS011;9686;48.832;9.126;2022-12-24T07:24:15;5.13;;;1.53;;
19107;SDS011;9686;48.832;9.126;2022-12-24T07:26:41;4.77;;;1.73;;
19107;SDS011;9686;48.832;9.126;2022-12-24T07:29:06;7.87;;;1.67;;
19107;SDS011;9686;48.832;9.126;2022-12-24T07:31:32;5.67;;;2.10;;
19107;SDS011;9686;48.832;9.126;2022-12-24T07:33:57;5.17;;;1.80;;
19107;SDS011;9686;48.832;9.126;2022-12-24T07:36:22;7.57;;;1.70;;
19107;SDS011;9686;48.832;9.126;2022-12-24T07:38:48;7.93;;;1.60;;
19107;SDS011;9686;48.832;9.126;2022-12-24T07:41:14;6.63;;;1.87;;
19107;SDS011;9686;48.832;9.126;2022-12-24T07:43:40;2.50;;;1.53;;
19107;SDS011;9686;48.832;9.126;2022-12-24T07:46:05;8.70;;;1.87;;
19107;SDS011;9686;48.832;9.126;2022-12-24T07:48:31;7.10;;;1.80;;
19107;SDS011;9686;48.832;9.126;2022-12-24T07:50:57;5.37;;;1.83;;
19107;SDS011;9686;48.832;9.126;2022-12-24T07:53:22;5.67;;;2.00;;
19107;SDS011;9686;48.832;9.126;2022-12-24T07:55:48;6.80;;;2.43;;
19107;SDS011;9686;48.832;9.126;2022-12-24T07:58:14;4.50;;;1.80;;
19107;SDS011;9686;48.832;9.126;2022-12-24T08:00:39;5.23;;;2.93;;
19107;SDS011;9686;48.832;9.126;2022-12-24T08:03:05;4.97;;;2.70;;
19107;SDS011;9686;48.832;9.126;2022-12-24T08:05:34;9.00;;;2.90;;
19107;SDS011;9686;48.832;9.126;2022-12-24T08:08:00;6.60;;;2.20;;
19107;SDS011;9686;48.832;9.126;2022-12-24T08:10:25;6.87;;;2.10;;
19107;SDS011;9686;48.832;9.126;2022-12-24T08:12:50;6.40;;;1.87;;
19107;SDS011;9686;48.832;9.126;2022-12-24T08:15:16;8.17;;;2.00;;
19107;SDS011;9686;48.832;9.126;2022-12-24T08:17:41;7.83;;;2.53;;
19107;SDS011;9686;48.832;9.126;2022-12-24T08:20:07;7.50;;;3.03;;
19107;SDS011;9686;48.832;9.126;2022-12-24T08:22:32;3.73;;;2.10;;
19107;SDS011;9686;48.832;9.126;2022-12-24T08:24:58;6.67;;;2.63;;
19107;SDS011;9686;48.832;9.126;2022-12-24T08:27:23;5.23;;;2.40;;
19107;SDS011;9686;48.832;9.126;2022-12-24T08:29:48;8.93;;;2.67;;
19107;SDS011;9686;48.832;9.126;2022-12-24T08:32:14;8.63;;;2.30;;
19107;SDS011;9686;48.832;9.126;2022-12-24T08:34:39;9.23;;;2.90;;
19107;SDS011;9686;48.832;9.126;2022-12-24T08:37:04;6.80;;;2.63;;
19107;SDS011;9686;48.832;9.126;2022-12-24T08:39:30;5.63;;;2.37;;
19107;SDS011;9686;48.832;9.126;2022-12-24T08:41:55;7.60;;;2.57;;
19107;SDS011;9686;48.832;9.126;2022-12-24T08:44:20;6.47;;;2.60;;
19107;SDS011;9686;48.832;9.126;2022-12-24T08:46:46;7.17;;;2.60;;
19107;SDS011;9686;48.832;9.126;2022-12-24T08:49:11;6.47;;;2.20;;
19107;SDS011;9686;48.832;9.126;2022-12-24T08:51:36;6.03;;;2.40;;
19107;SDS011;9686;48.832;9.126;2022-12-24T08:54:02;6.23;;;2.20;;
19107;SDS011;9686;48.832;9.126;2022-12-24T08:56:27;7.27;;;2.50;;
19107;SDS011;9686;48.832;9.126;2022-12-24T08:58:52;5.80;;;1.93;;
19107;SDS011;9686;48.832;9.126;2022-12-24T09:01:18;8.50;;;2.13;;
19107;SDS011;9686;48.832;9.126;2022-12-24T09:03:44;8.33;;;2.37;;
19107;SDS011;9686;48.832;9.126;2022-12-24T09:06:10;10.40;;;2.80;;
19107;SDS011;9686;48.832;9.126;2022-12-24T09:08:35;5.43;;;2.53;;
19107;SDS011;9686;48.832;9.126;2022-12-24T09:11:11;7.83;;;2.53;;
19107;SDS011;9686;48.832;9.126;2022-12-24T09:13:39;6.47;;;2.00;;
19107;SDS011;9686;48.832;9.126;2022-12-24T09:16:05;5.70;;;2.23;;
19107;SDS011;9686;48.832;9.126;2022-12-24T09:18:31;5.20;;;2.37;;
19107;SDS011;9686;48.832;9.126;2022-12-24T09:21:00;6.53;;;2.40;;
19107;SDS011;9686;48.832;9.126;2022-12-24T09:23:26;11.33;;;3.40;;
19107;SDS011;9686;48.832;9.126;2022-12-24T09:25:51;8.57;;;2.80;;
19107;SDS011;9686;48.832;9.126;2022-12-24T09:28:17;5.87;;;2.40;;
19107;SDS011;9686;48.832;9.126;2022-12-24T09:30:42;7.10;;;2.80;;
19107;SDS011;9686;48.832;9.126;2022-12-24T09:33:07;6.17;;;2.60;;
19107;SDS011;9686;48.832;9.126;2022-12-24T09:35:33;7.60;;;2.53;;
19107;SDS011;9686;48.832;9.126;2022-12-24T09:37:58;5.43;;;2.67;;
19107;SDS011;9686;48.832;9.126;2022-12-24T09:40:33;9.30;;;3.67;;
19107;SDS011;9686;48.832;9.126;2022-12-24T09:43:03;9.10;;;3.73;;
19107;SDS011;9686;48.832;9.126;2022-12-24T09:45:36;11.40;;;3.87;;
19107;SDS011;9686;48.832;9.126;2022-12-24T09:48:10;12.30;;;4.13;;
19107;SDS011;9686;48.832;9.126;2022-12-24T09:50:41;10.90;;;3.70;;
19107;SDS011;9686;48.832;9.126;2022-12-24T09:56:01;9.00;;;3.20;;
19107;SDS011;9686;48.832;9.126;2022-12-24T09:58:32;11.67;;;2.87;;
19107;SDS011;9686;48.832;9.126;2022-12-24T10:01:01;6.57;;;2.13;;
19107;SDS011;9686;48.832;9.126;2022-12-24T10:03:26;11.13;;;2.40;;
19107;SDS011;9686;48.832;9.126;2022-12-24T10:08:26;9.33;;;3.73;;
19107;SDS011;9686;48.832;9.126;2022-12-24T10:11:01;11.27;;;2.20;;
19107;SDS011;9686;48.832;9.126;2022-12-24T10:16:31;5.20;;;2.50;;
19107;SDS011;9686;48.832;9.126;2022-12-24T10:19:17;10.03;;;2.13;;
19107;SDS011;9686;48.832;9.126;2022-12-24T10:22:36;7.63;;;2.80;;
19107;SDS011;9686;48.832;9.126;2022-12-24T10:27:46;11.73;;;2.30;;
19107;SDS011;9686;48.832;9.126;2022-12-24T10:30:13;6.87;;;2.00;;
19107;SDS011;9686;48.832;9.126;2022-12-24T10:32:40;11.80;;;2.50;;
19107;SDS011;9686;48.832;9.126;2022-12-24T10:37:44;10.33;;;2.80;;
19107;SDS011;9686;48.832;9.126;2022-12-24T10:40:17;14.03;;;5.97;;
19107;SDS011;9686;48.832;9.126;2022-12-24T10:43:15;7.97;;;2.43;;
19107;SDS011;9686;48.832;9.126;2022-12-24T10:45:45;12.47;;;3.07;;
19107;SDS011;9686;48.832;9.126;2022-12-24T10:48:21;10.20;;;2.47;;
19107;SDS011;9686;48.832;9.126;2022-12-24T10:51:20;11.13;;;2.80;;
19107;SDS011;9686;48.832;9.126;2022-12-24T10:53:53;11.50;;;2.33;;
19107;SDS011;9686;48.832;9.126;2022-12-24T10:56:23;9.67;;;2.63;;
19107;SDS011;9686;48.832;9.126;2022-12-24T10:58:52;9.70;;;2.23;;
19107;SDS011;9686;48.832;9.126;2022-12-24T11:01:19;10.50;;;2.63;;
19107;SDS011;9686;48.832;9.126;2022-12-24T11:04:05;7.50;;;2.20;;
19107;SDS011;9686;48.832;9.126;2022-12-24T11:06:31;14.07;;;4.00;;
19107;SDS011;9686;48.832;9.126;2022-12-24T11:09:06;6.73;;;2.47;;
19107;SDS011;9686;48.832;9.126;2022-12-24T11:11:44;13.50;;;3.23;;
19107;SDS011;9686;48.832;9.126;2022-12-24T11:14:10;9.17;;;2.20;;
19107;SDS011;9686;48.832;9.126;2022-12-24T11:16:40;12.67;;;3.87;;
19107;SDS011;9686;48.832;9.126;2022-12-24T11:19:15;9.77;;;2.97;;
19107;SDS011;9686;48.832;9.126;2022-12-24T11:21:43;8.47;;;2.13;;
19107;SDS011;9686;48.832;9.126;2022-12-24T11:26:37;7.20;;;3.13;;
19107;SDS011;9686;48.832;9.126;2022-12-24T11:31:32;9.93;;;2.27;;
19107;SDS011;9686;48.832;9.126;2022-12-24T11:34:02;11.43;;;3.53;;
19107;SDS011;9686;48.832;9.126;2022-12-24T11:36:42;9.67;;;4.70;;
19107;SDS011;9686;48.832;9.126;2022-12-24T11:39:10;12.47;;;3.13;;
19107;SDS011;9686;48.832;9.126;2022-12-24T11:41:43;11.43;;;3.20;;
19107;SDS011;9686;48.832;9.126;2022-12-24T11:44:08;9.60;;;3.00;;
19107;SDS011;9686;48.832;9.126;2022-12-24T11:46:38;11.30;;;3.20;;
19107;SDS011;9686;48.832;9.126;2022-12-24T11:51:39;9.17;;;2.90;;
19107;SDS011;9686;48.832;9.126;2022-12-24T11:54:26;12.70;;;3.90;;
19107;SDS011;9686;48.832;9.126;2022-12-24T11:56:56;12.83;;;3.63;;
19107;SDS011;9686;48.832;9.126;2022-12-24T11:59:31;10.80;;;2.87;;
19107;SDS011;9686;48.832;9.126;2022-12-24T12:04:56;11.83;;;3.00;;
19107;SDS011;9686;48.832;9.126;2022-12-24T12:07:28;11.73;;;3.00;;
19107;SDS011;9686;48.832;9.126;2022-12-24T12:09:59;13.10;;;2.80;;
19107;SDS011;9686;48.832;9.126;2022-12-24T12:12:31;6.33;;;2.10;;
19107;SDS011;9686;48.832;9.126;2022-12-24T12:17:59;9.20;;;3.20;;
19107;SDS011;9686;48.832;9.126;2022-12-24T12:20:35;10.03;;;3.33;;
19107;SDS011;9686;48.832;9.126;2022-12-24T12:23:23;6.77;;;2.17;;
19107;SDS011;9686;48.832;9.126;2022-12-24T12:26:14;9.27;;;2.70;;
19107;SDS011;9686;48.832;9.126;2022-12-24T12:28:57;13.07;;;2.53;;
19107;SDS011;9686;48.832;9.126;2022-12-24T12:31:25;9.87;;;2.73;;
19107;SDS011;9686;48.832;9.126;2022-12-24T12:33:56;8.40;;;2.70;;
19107;SDS011;9686;48.832;9.126;2022-12-24T12:36:30;11.33;;;2.30;;
19107;SDS011;9686;48.832;9.126;2022-12-24T12:39:00;10.00;;;2.73;;
19107;SDS011;9686;48.832;9.126;2022-12-24T12:49:03;10.97;;;4.37;;
19107;SDS011;9686;48.832;9.126;2022-12-24T12:51:45;8.63;;;2.67;;
19107;SDS011;9686;48.832;9.126;2022-12-24T12:57:07;10.27;;;2.53;;
19107;SDS011;9686;48.832;9.126;2022-12-24T12:59:37;9.13;;;2.87;;
19107;SDS011;9686;48.832;9.126;2022-12-24T13:02:21;11.70;;;2.90;;
19107;SDS011;9686;48.832;9.126;2022-12-24T13:12:41;9.23;;;2.73;;
19107;SDS011;9686;48.832;9.126;2022-12-24T13:20:45;9.40;;;3.23;;
19107;SDS011;9686;48.832;9.126;2022-12-24T13:23:20;7.63;;;2.67;;
19107;SDS011;9686;48.832;9.126;2022-12-24T13:25:51;10.87;;;2.97;;
19107;SDS011;9686;48.832;9.126;2022-12-24T13:30:48;9.20;;;2.50;;
19107;SDS011;9686;48.832;9.126;2022-12-24T13:38:43;8.67;;;2.47;;
19107;SDS011;9686;48.832;9.126;2022-12-24T13:49:35;6.80;;;2.27;;
19107;SDS011;9686;48.832;9.126;2022-12-24T13:57:27;10.50;;;2.10;;
19107;SDS011;9686;48.832;9.126;2022-12-24T14:02:32;10.63;;;2.80;;
19107;SDS011;9686;48.832;9.126;2022-12-24T14:05:02;10.63;;;2.27;;
19107;SDS011;9686;48.832;9.126;2022-12-24T14:07:32;5.70;;;1.80;;
19107;SDS011;9686;48.832;9.126;2022-12-24T14:09:59;8.40;;;2.37;;
19107;SDS011;9686;48.832;9.126;2022-12-24T14:18:24;11.67;;;2.33;;
19107;SDS011;9686;48.832;9.126;2022-12-24T14:20:50;8.10;;;2.17;;
19107;SDS011;9686;48.832;9.126;2022-12-24T14:23:30;8.57;;;2.10;;
19107;SDS011;9686;48.832;9.126;2022-12-24T14:26:08;12.73;;;2.70;;
19107;SDS011;9686;48.832;9.126;2022-12-24T14:29:03;17.23;;;2.97;;
19107;SDS011;9686;48.832;9.126;2022-12-24T14:31:59;15.60;;;3.67;;
19107;SDS011;9686;48.832;9.126;2022-12-24T14:34:28;12.50;;;3.17;;
19107;SDS011;9686;48.832;9.126;2022-12-24T14:36:54;11.70;;;4.10;;
19107;SDS011;9686;48.832;9.126;2022-12-24T14:39:24;8.43;;;3.30;;
19107;SDS011;9686;48.832;9.126;2022-12-24T14:44:40;14.03;;;3.47;;
19107;SDS011;9686;48.832;9.126;2022-12-24T15:00:43;11.20;;;4.40;;
19107;SDS011;9686;48.832;9.126;2022-12-24T15:03:11;13.13;;;4.97;;
19107;SDS011;9686;48.832;9.126;2022-12-24T15:05:38;15.87;;;5.50;;
19107;SDS011;9686;48.832;9.126;2022-12-24T15:08:07;16.03;;;5.10;;
19107;SDS011;9686;48.832;9.126;2022-12-24T15:10:37;13.37;;;4.97;;
19107;SDS011;9686;48.832;9.126;2022-12-24T15:13:06;11.67;;;4.83;;
19107;SDS011;9686;48.832;9.126;2022-12-24T15:15:41;11.40;;;4.47;;
19107;SDS011;9686;48.832;9.126;2022-12-24T15:18:09;12.57;;;4.33;;
19107;SDS011;9686;48.832;9.126;2022-12-24T15:20:41;13.90;;;3.87;;
19107;SDS011;9686;48.832;9.126;2022-12-24T15:23:16;8.47;;;3.47;;
19107;SDS011;9686;48.832;9.126;2022-12-24T15:25:43;11.17;;;4.57;;
19107;SDS011;9686;48.832;9.126;2022-12-24T15:28:18;15.77;;;3.63;;
19107;SDS011;9686;48.832;9.126;2022-12-24T15:30:47;10.20;;;3.30;;
19107;SDS011;9686;48.832;9.126;2022-12-24T15:33:12;11.10;;;3.57;;
19107;SDS011;9686;48.832;9.126;2022-12-24T15:35:48;11.27;;;3.83;;
19107;SDS011;9686;48.832;9.126;2022-12-24T15:38:24;7.57;;;3.20;;
19107;SDS011;9686;48.832;9.126;2022-12-24T15:40:54;13.23;;;3.37;;
19107;SDS011;9686;48.832;9.126;2022-12-24T15:43:20;9.90;;;3.20;;
19107;SDS011;9686;48.832;9.126;2022-12-24T15:45:46;11.33;;;3.27;;
19107;SDS011;9686;48.832;9.126;2022-12-24T15:48:13;8.07;;;3.57;;
19107;SDS011;9686;48.832;9.126;2022-12-24T15:50:46;8.53;;;2.77;;
19107;SDS011;9686;48.832;9.126;2022-12-24T15:53:13;8.77;;;3.20;;
19107;SDS011;9686;48.832;9.126;2022-12-24T15:55:43;9.47;;;3.10;;
19107;SDS011;9686;48.832;9.126;2022-12-24T15:58:20;8.30;;;2.90;;
19107;SDS011;9686;48.832;9.126;2022-12-24T16:03:33;7.13;;;3.07;;
19107;SDS011;9686;48.832;9.126;2022-12-24T16:06:03;15.47;;;4.30;;
19107;SDS011;9686;48.832;9.126;2022-12-24T16:08:35;10.27;;;3.30;;
19107;SDS011;9686;48.832;9.126;2022-12-24T16:11:19;11.97;;;4.23;;
19107;SDS011;9686;48.832;9.126;2022-12-24T16:14:05;8.80;;;3.20;;
19107;SDS011;9686;48.832;9.126;2022-12-24T16:16:38;9.80;;;4.00;;
19107;SDS011;9686;48.832;9.126;2022-12-24T16:19:05;10.17;;;3.50;;
19107;SDS011;9686;48.832;9.126;2022-12-24T16:21:36;8.30;;;3.67;;
19107;SDS011;9686;48.832;9.126;2022-12-24T16:26:30;8.13;;;3.53;;
19107;SDS011;9686;48.832;9.126;2022-12-24T16:28:56;11.50;;;4.00;;
19107;SDS011;9686;48.832;9.126;2022-12-24T16:31:28;9.77;;;3.90;;
19107;SDS011;9686;48.832;9.126;2022-12-24T16:33:57;9.27;;;3.50;;
19107;SDS011;9686;48.832;9.126;2022-12-24T16:36:24;7.60;;;3.40;;
19107;SDS011;9686;48.832;9.126;2022-12-24T16:38:49;10.70;;;3.90;;
19107;SDS011;9686;48.832;9.126;2022-12-24T16:41:33;10.43;;;3.93;;
19107;SDS011;9686;48.832;9.126;2022-12-24T16:44:18;13.00;;;3.67;;
19107;SDS011;9686;48.832;9.126;2022-12-24T16:46:43;9.77;;;3.07;;
19107;SDS011;9686;48.832;9.126;2022-12-24T16:49:15;8.23;;;3.67;;
19107;SDS011;9686;48.832;9.126;2022-12-24T16:51:42;9.37;;;3.67;;
19107;SDS011;9686;48.832;9.126;2022-12-24T16:54:11;10.13;;;4.00;;
19107;SDS011;9686;48.832;9.126;2022-12-24T16:56:38;12.27;;;4.57;;
19107;SDS011;9686;48.832;9.126;2022-12-24T16:59:04;9.17;;;4.10;;
19107;SDS011;9686;48.832;9.126;2022-12-24T17:01:29;10.17;;;4.13;;
19107;SDS011;9686;48.832;9.126;2022-12-24T17:03:55;12.27;;;4.27;;
19107;SDS011;9686;48.832;9.126;2022-12-24T17:06:20;10.83;;;4.30;;
19107;SDS011;9686;48.832;9.126;2022-12-24T17:08:46;12.80;;;4.43;;
19107;SDS011;9686;48.832;9.126;2022-12-24T17:11:12;9.63;;;3.63;;
19107;SDS011;9686;48.832;9.126;2022-12-24T17:13:38;12.97;;;4.97;;